Time;durP1;ratioP1;P1;durP2;ratioP2;P2;SDS_P1;SDS_P2;PMS_P1;PMS_P2;Temp;Humidity;BMP_temperature;BMP_pressure;BME280_temperature;BME280_humidity;BME280_pressure;Samples;Min_cycle;Max_cycle;Signal;HPM_P1;HPM_P2
2023/04/29 00:01:51;;;;;;;28.88;18.08;;;11.50;99.90;;;;;;5074318;28;20024;-85
2023/04/29 00:04:17;;;;;;;28.60;19.77;;;11.50;99.90;;;;;;5058580;28;20039;-85
2023/04/29 00:06:42;;;;;;;27.58;19.65;;;11.50;99.90;;;;;;5072752;28;20572;-85
2023/04/29 00:09:08;;;;;;;27.52;19.13;;;11.50;99.90;;;;;;5069330;28;20031;-85
2023/04/29 00:11:33;;;;;;;28.25;17.52;;;11.40;99.90;;;;;;5069869;28;20558;-85
2023/04/29 00:14:00;;;;;;;26.77;18.25;;;11.50;99.90;;;;;;5064583;28;20086;-85
2023/04/29 00:16:25;;;;;;;26.65;18.98;;;11.40;99.90;;;;;;5065844;28;20119;-85
2023/04/29 00:18:51;;;;;;;27.92;18.50;;;11.40;99.90;;;;;;5070279;28;20044;-85
2023/04/29 00:21:16;;;;;;;28.90;20.52;;;11.40;99.90;;;;;;5038304;28;20044;-85
2023/04/29 00:23:42;;;;;;;27.40;18.15;;;11.40;99.90;;;;;;5056070;28;20048;-85
2023/04/29 00:26:08;;;;;;;26.80;19.40;;;11.40;99.90;;;;;;5046542;28;20044;-85
2023/04/29 00:28:33;;;;;;;28.90;18.40;;;11.40;99.90;;;;;;5055188;28;20048;-85
2023/04/29 00:30:59;;;;;;;30.80;19.08;;;11.40;99.90;;;;;;5067148;28;20094;-85
2023/04/29 00:33:25;;;;;;;30.90;19.38;;;11.40;99.90;;;;;;5058558;28;20039;-85
2023/04/29 00:35:50;;;;;;;26.63;18.23;;;11.40;99.90;;;;;;5055675;28;20560;-85
2023/04/29 00:38:16;;;;;;;26.42;18.80;;;11.30;99.90;;;;;;5069250;28;20040;-85
2023/04/29 00:40:42;;;;;;;29.17;18.85;;;11.30;99.90;;;;;;5075052;28;20124;-85
2023/04/29 00:43:08;;;;;;;26.50;17.55;;;11.30;99.90;;;;;;5066111;28;20165;-85
2023/04/29 00:45:33;;;;;;;27.92;18.85;;;11.30;99.90;;;;;;5058301;28;20119;-85
2023/04/29 00:47:59;;;;;;;27.98;17.35;;;11.30;99.90;;;;;;5065824;28;20510;-85
2023/04/29 00:50:25;;;;;;;27.88;17.90;;;11.20;99.90;;;;;;5074835;28;20043;-85
2023/04/29 00:52:51;;;;;;;29.95;18.08;;;11.20;99.90;;;;;;5065609;28;20036;-85
2023/04/29 00:55:17;;;;;;;29.17;17.90;;;11.20;99.90;;;;;;5058620;28;20047;-85
2023/04/29 00:57:46;;;;;;;26.92;17.75;;;11.20;99.90;;;;;;5074765;28;20420;-85
2023/04/29 01:00:14;;;;;;;30.27;17.50;;;11.10;99.90;;;;;;5057939;28;20528;-85
2023/04/29 01:02:39;;;;;;;30.63;18.13;;;11.20;99.90;;;;;;5058525;28;20047;-85
2023/04/29 01:05:05;;;;;;;29.40;19.27;;;11.10;99.90;;;;;;5056021;28;20434;-85
2023/04/29 01:07:44;;;;;;;29.25;18.88;;;11.10;99.90;;;;;;5038662;28;20482;-85
2023/04/29 01:10:18;;;;;;;29.60;18.40;;;11.10;99.90;;;;;;5063085;28;20074;-85
2023/04/29 01:13:05;;;;;;;28.73;18.50;;;11.10;99.90;;;;;;5054893;28;20049;-85
2023/04/29 01:15:38;;;;;;;32.30;17.73;;;11.10;99.90;;;;;;5038388;28;20063;-84
2023/04/29 01:18:10;;;;;;;27.25;16.77;;;11.10;99.90;;;;;;5073971;28;20508;-85
2023/04/29 01:20:37;;;;;;;25.00;17.23;;;11.10;99.90;;;;;;5068079;28;20410;-85
2023/04/29 01:23:03;;;;;;;36.80;33.00;;;11.10;99.90;;;;;;5038456;28;20041;-85
2023/04/29 01:25:28;;;;;;;25.67;17.05;;;11.20;99.90;;;;;;5054702;28;20032;-85
2023/04/29 01:28:13;;;;;;;28.13;17.55;;;11.20;99.90;;;;;;5038144;28;20043;-85
2023/04/29 01:31:18;;;;;;;31.55;18.02;;;11.10;99.90;;;;;;5037979;28;20037;-85
2023/04/29 01:33:58;;;;;;;32.13;19.15;;;11.10;99.90;;;;;;4958626;28;20500;-85
2023/04/29 01:36:54;;;;;;;30.23;19.05;;;11.10;99.90;;;;;;5055364;28;20048;-85
2023/04/29 01:39:36;;;;;;;32.13;18.58;;;11.00;99.90;;;;;;5057654;28;20088;-85
2023/04/29 01:42:14;;;;;;;32.35;17.67;;;11.00;99.90;;;;;;5070685;28;20044;-85
2023/04/29 01:44:41;;;;;;;30.60;17.65;;;11.00;99.90;;;;;;5068848;28;20086;-84
2023/04/29 01:47:12;;;;;;;32.17;17.40;;;11.00;99.90;;;;;;5056733;28;20040;-85
2023/04/29 01:49:38;;;;;;;35.63;20.35;;;10.90;99.90;;;;;;5047665;28;20466;-84
2023/04/29 01:52:05;;;;;;;32.58;19.85;;;11.00;99.90;;;;;;5073809;28;20044;-85
2023/04/29 01:54:35;;;;;;;31.63;18.52;;;10.90;99.90;;;;;;5067202;28;20037;-85
2023/04/29 01:57:01;;;;;;;37.22;19.58;;;10.90;99.90;;;;;;5037227;28;20044;-85
2023/04/29 01:59:26;;;;;;;33.65;19.58;;;10.90;99.90;;;;;;5055827;28;20433;-85
2023/04/29 02:01:52;;;;;;;33.30;18.38;;;10.90;99.90;;;;;;5056570;28;20036;-85
2023/04/29 02:04:18;;;;;;;34.78;19.50;;;10.90;99.90;;;;;;5073246;28;20040;-84
2023/04/29 02:06:43;;;;;;;34.55;19.65;;;10.90;99.90;;;;;;5071503;28;20083;-85
2023/04/29 02:09:09;;;;;;;36.47;20.15;;;10.90;99.90;;;;;;5053680;28;20041;-85
2023/04/29 02:11:34;;;;;;;32.83;18.10;;;10.90;99.90;;;;;;5039922;28;20032;-85
2023/04/29 02:14:00;;;;;;;33.05;17.33;;;10.90;99.90;;;;;;5058140;28;20055;-84
2023/04/29 02:16:26;;;;;;;31.77;20.58;;;10.90;99.90;;;;;;5053593;28;20040;-85
2023/04/29 02:18:51;;;;;;;33.63;19.75;;;10.80;99.90;;;;;;5042447;28;20028;-85
2023/04/29 02:21:17;;;;;;;31.52;19.20;;;10.80;99.90;;;;;;5056608;28;20493;-85
2023/04/29 02:23:43;;;;;;;33.42;19.52;;;10.80;99.90;;;;;;5056016;28;20044;-85
2023/04/29 02:26:09;;;;;;;33.75;20.15;;;10.80;99.90;;;;;;5071793;28;20036;-85
2023/04/29 02:28:35;;;;;;;28.80;18.02;;;10.80;99.90;;;;;;5073061;28;20120;-85
2023/04/29 02:31:01;;;;;;;28.50;18.83;;;10.80;99.90;;;;;;5063281;28;20123;-85
2023/04/29 02:33:27;;;;;;;30.73;18.48;;;10.70;99.90;;;;;;5073580;28;20040;-85
2023/04/29 02:35:52;;;;;;;33.40;19.73;;;10.70;99.90;;;;;;5072550;28;20051;-85
2023/04/29 02:38:18;;;;;;;30.38;17.40;;;10.70;99.90;;;;;;5056492;28;20051;-85
2023/04/29 02:40:44;;;;;;;28.63;18.40;;;10.70;99.90;;;;;;5073244;28;20119;-85
2023/04/29 02:43:11;;;;;;;34.17;19.83;;;10.60;99.90;;;;;;5044296;28;20051;-84
2023/04/29 02:45:37;;;;;;;32.10;19.40;;;10.70;99.90;;;;;;5053204;28;20052;-85
2023/04/29 02:48:04;;;;;;;32.25;18.23;;;10.70;99.90;;;;;;5036163;28;20051;-85
2023/04/29 02:50:29;;;;;;;34.45;20.13;;;10.70;99.90;;;;;;5060842;28;20048;-85
2023/04/29 02:52:55;;;;;;;33.47;19.08;;;10.70;99.90;;;;;;5052764;28;20044;-85
2023/04/29 02:55:21;;;;;;;33.58;18.40;;;10.60;99.90;;;;;;5061007;28;20469;-85
2023/04/29 02:57:46;;;;;;;33.55;18.85;;;10.60;99.90;;;;;;5056209;28;20040;-85
2023/04/29 03:00:12;;;;;;;39.33;20.38;;;10.70;99.90;;;;;;5072792;28;20573;-85
2023/04/29 03:02:37;;;;;;;36.00;19.73;;;10.60;99.90;;;;;;5056268;28;20046;-85
2023/04/29 03:05:04;;;;;;;34.65;20.48;;;10.60;99.90;;;;;;5056119;28;20039;-85
2023/04/29 03:07:30;;;;;;;37.42;21.15;;;10.60;99.90;;;;;;5063651;28;20044;-85
2023/04/29 03:09:56;;;;;;;32.75;17.85;;;10.60;99.90;;;;;;5072883;28;20590;-85
2023/04/29 03:12:22;;;;;;;32.95;18.20;;;10.60;99.90;;;;;;5056135;28;20552;-85
2023/04/29 03:14:47;;;;;;;34.70;18.35;;;10.60;99.90;;;;;;5055176;28;20795;-85
2023/04/29 03:17:14;;;;;;;28.13;17.42;;;10.60;99.90;;;;;;5072238;28;20036;-85
2023/04/29 03:19:40;;;;;;;29.15;17.00;;;10.60;99.90;;;;;;5070865;28;20404;-85
2023/04/29 03:22:08;;;;;;;29.45;15.82;;;10.60;99.90;;;;;;5052361;28;20097;-85
2023/04/29 03:24:34;;;;;;;30.55;16.92;;;10.60;99.90;;;;;;5035889;28;20040;-84
2023/04/29 03:26:59;;;;;;;32.67;16.92;;;10.60;99.90;;;;;;5069317;28;20078;-85
2023/04/29 03:29:26;;;;;;;27.73;15.98;;;10.60;99.90;;;;;;5055847;28;20456;-85
2023/04/29 03:31:52;;;;;;;29.58;16.95;;;10.60;99.90;;;;;;5054950;28;20123;-85
2023/04/29 03:34:18;;;;;;;30.02;16.85;;;10.50;99.90;;;;;;5072340;28;20040;-85
2023/04/29 03:36:44;;;;;;;27.60;15.95;;;10.60;99.90;;;;;;5067778;28;20051;-84
2023/04/29 03:39:11;;;;;;;31.75;16.65;;;10.50;99.90;;;;;;5074527;28;20095;-85
2023/04/29 03:41:37;;;;;;;29.05;15.43;;;10.50;99.90;;;;;;5059534;28;20077;-85
2023/04/29 03:44:03;;;;;;;24.48;14.70;;;10.50;99.90;;;;;;5066866;28;20457;-85
2023/04/29 03:46:29;;;;;;;25.90;14.32;;;10.50;99.90;;;;;;5059610;28;20081;-85
2023/04/29 03:48:55;;;;;;;24.00;14.68;;;10.50;99.90;;;;;;5076421;28;20130;-85
2023/04/29 03:51:24;;;;;;;22.02;13.77;;;10.50;99.90;;;;;;5058720;28;20120;-85
2023/04/29 03:53:51;;;;;;;24.88;14.27;;;10.50;99.90;;;;;;5039694;28;20119;-85
2023/04/29 03:56:17;;;;;;;28.77;15.30;;;10.50;99.90;;;;;;5056155;28;20119;-84
2023/04/29 03:58:42;;;;;;;24.15;14.05;;;10.40;99.90;;;;;;5055585;28;20513;-85
2023/04/29 04:01:08;;;;;;;25.65;14.45;;;10.40;99.90;;;;;;5055992;28;20041;-85
2023/04/29 04:03:34;;;;;;;25.58;14.65;;;10.40;99.90;;;;;;5056406;28;20044;-85
2023/04/29 04:06:00;;;;;;;24.20;13.30;;;10.40;99.90;;;;;;5075871;28;20066;-85
2023/04/29 04:08:25;;;;;;;28.70;14.30;;;10.40;99.90;;;;;;5059130;28;20036;-85
2023/04/29 04:10:51;;;;;;;28.00;14.18;;;10.40;99.90;;;;;;5058680;28;20115;-85
2023/04/29 04:13:17;;;;;;;26.23;12.80;;;10.30;99.90;;;;;;5039203;28;20125;-85
2023/04/29 04:15:50;;;;;;;23.60;12.93;;;10.40;99.90;;;;;;5038580;28;20104;-85
2023/04/29 04:18:15;;;;;;;28.88;12.82;;;10.30;99.90;;;;;;5055140;28;20044;-84
2023/04/29 04:20:41;;;;;;;25.65;12.48;;;10.30;99.90;;;;;;5055544;28;20043;-85
2023/04/29 04:23:07;;;;;;;23.15;14.02;;;10.30;99.90;;;;;;5066081;28;20063;-85
2023/04/29 04:25:32;;;;;;;23.08;13.25;;;10.30;99.90;;;;;;5075484;28;20040;-85
2023/04/29 04:27:58;;;;;;;22.48;12.95;;;10.30;99.90;;;;;;5075895;28;20148;-85
2023/04/29 04:30:23;;;;;;;20.15;10.57;;;10.30;99.90;;;;;;5075053;28;20517;-85
2023/04/29 04:32:49;;;;;;;20.00;12.25;;;10.30;99.90;;;;;;5059062;28;20135;-84
2023/04/29 04:35:15;;;;;;;22.38;12.15;;;10.20;99.90;;;;;;5058727;28;20093;-84
2023/04/29 04:37:40;;;;;;;21.77;12.18;;;10.30;99.90;;;;;;5075663;28;20036;-84
2023/04/29 04:40:07;;;;;;;22.17;12.35;;;10.20;99.90;;;;;;5075645;28;20500;-85
2023/04/29 04:42:32;;;;;;;25.80;11.57;;;10.20;99.90;;;;;;5075161;28;20055;-85
2023/04/29 04:44:58;;;;;;;22.25;11.85;;;10.20;99.90;;;;;;5075799;28;20044;-84
2023/04/29 04:47:23;;;;;;;23.30;13.43;;;10.20;99.90;;;;;;5066785;28;20573;-84
2023/04/29 04:49:50;;;;;;;20.33;11.77;;;10.20;99.90;;;;;;5055016;28;20097;-85
2023/04/29 04:52:19;;;;;;;20.73;11.55;;;10.20;99.90;;;;;;5055379;28;20036;-85
2023/04/29 04:54:45;;;;;;;23.13;13.77;;;10.20;99.90;;;;;;5061064;28;20413;-85
2023/04/29 04:57:10;;;;;;;25.33;13.93;;;10.20;99.90;;;;;;5075040;28;20054;-84
2023/04/29 04:59:36;;;;;;;21.98;12.35;;;10.20;99.90;;;;;;5074308;28;20485;-85
2023/04/29 05:02:02;;;;;;;24.55;11.60;;;10.20;99.90;;;;;;5074003;28;20036;-85
2023/04/29 05:04:27;;;;;;;20.77;11.68;;;10.20;99.90;;;;;;5058104;28;20040;-85
2023/04/29 05:06:53;;;;;;;22.05;12.38;;;10.20;99.90;;;;;;5053619;28;20051;-85
2023/04/29 05:09:18;;;;;;;23.90;11.85;;;10.20;99.90;;;;;;5055051;28;20131;-85
2023/04/29 05:11:45;;;;;;;24.58;11.73;;;10.20;99.90;;;;;;5054661;28;20037;-85
2023/04/29 05:14:10;;;;;;;23.08;12.68;;;10.20;99.90;;;;;;5062790;28;20048;-85
2023/04/29 05:16:37;;;;;;;23.67;12.85;;;10.20;99.90;;;;;;5054687;28;20036;-85
2023/04/29 05:19:02;;;;;;;22.85;11.55;;;10.20;99.90;;;;;;5038301;28;20033;-85
2023/04/29 05:21:28;;;;;;;23.75;12.10;;;10.20;99.90;;;;;;5053595;28;20397;-85
2023/04/29 05:23:53;;;;;;;22.33;12.55;;;10.20;99.90;;;;;;5054524;28;20036;-85
2023/04/29 05:26:19;;;;;;;24.08;12.48;;;10.20;99.90;;;;;;5053765;28;20064;-85
2023/04/29 05:28:45;;;;;;;23.83;11.85;;;10.10;99.90;;;;;;5054200;28;20086;-84
2023/04/29 05:31:11;;;;;;;22.67;11.93;;;10.10;99.90;;;;;;5053757;28;20028;-85
2023/04/29 05:33:37;;;;;;;20.23;11.25;;;10.20;99.90;;;;;;5054182;28;20040;-85
2023/04/29 05:36:02;;;;;;;22.98;12.27;;;10.10;99.90;;;;;;5037268;28;20059;-85
2023/04/29 05:38:28;;;;;;;25.30;11.50;;;10.20;99.90;;;;;;5052737;28;20032;-85
2023/04/29 05:40:55;;;;;;;21.77;11.55;;;10.20;99.90;;;;;;5053582;28;20482;-85
2023/04/29 05:43:20;;;;;;;21.77;11.90;;;10.20;99.90;;;;;;5056361;28;20070;-85
2023/04/29 05:45:46;;;;;;;21.48;10.73;;;10.20;99.90;;;;;;5071528;28;20076;-85
2023/04/29 05:48:12;;;;;;;21.75;10.57;;;10.20;99.90;;;;;;5072628;28;20500;-85
2023/04/29 05:50:37;;;;;;;19.50;11.05;;;10.20;99.90;;;;;;5042883;28;20537;-85
2023/04/29 05:53:03;;;;;;;21.17;10.57;;;10.20;99.90;;;;;;5054040;28;20047;-85
2023/04/29 05:55:29;;;;;;;21.88;10.57;;;10.20;99.90;;;;;;5038141;28;20052;-85
2023/04/29 05:57:55;;;;;;;17.15;9.65;;;10.20;99.90;;;;;;5073236;28;20093;-85
2023/04/29 06:00:21;;;;;;;17.70;9.82;;;10.20;99.90;;;;;;5056659;28;20551;-85
2023/04/29 06:02:46;;;;;;;20.42;9.85;;;10.30;99.90;;;;;;5063695;28;20648;-85
2023/04/29 06:05:13;;;;;;;19.92;9.70;;;10.20;99.90;;;;;;5056086;28;20043;-85
2023/04/29 06:07:40;;;;;;;19.02;9.75;;;10.30;99.90;;;;;;5069794;28;20497;-85
2023/04/29 06:10:07;;;;;;;20.05;9.27;;;10.30;99.90;;;;;;5052437;28;20040;-85
2023/04/29 06:12:32;;;;;;;19.40;10.40;;;10.30;99.90;;;;;;5053122;28;20051;-85
2023/04/29 06:14:58;;;;;;;16.85;8.95;;;10.30;99.90;;;;;;5060490;28;20051;-85
2023/04/29 06:17:23;;;;;;;17.85;8.80;;;10.30;99.90;;;;;;5057098;28;20043;-84
2023/04/29 06:19:49;;;;;;;17.60;9.02;;;10.30;99.90;;;;;;5073151;28;20048;-85
2023/04/29 06:22:15;;;;;;;16.92;9.05;;;10.40;99.90;;;;;;5063792;28;20402;-84
2023/04/29 06:24:40;;;;;;;21.33;10.40;;;10.40;99.90;;;;;;5071203;28;20042;-84
2023/04/29 06:27:06;;;;;;;20.30;10.20;;;10.40;99.90;;;;;;5072309;28;20508;-85
2023/04/29 06:29:31;;;;;;;16.95;9.15;;;10.40;99.90;;;;;;5053298;28;20486;-85
2023/04/29 06:31:57;;;;;;;21.17;10.75;;;10.40;99.90;;;;;;5036737;28;20041;-85
2023/04/29 06:34:23;;;;;;;21.63;11.00;;;10.40;99.90;;;;;;5043725;28;20032;-85
2023/04/29 06:36:48;;;;;;;19.17;10.10;;;10.50;99.90;;;;;;5067589;28;20116;-85
2023/04/29 06:39:14;;;;;;;19.23;9.77;;;10.50;99.90;;;;;;5056700;28;20452;-85
2023/04/29 06:41:40;;;;;;;20.83;10.25;;;10.50;99.90;;;;;;5046849;28;20042;-85
2023/04/29 06:44:05;;;;;;;21.10;10.52;;;10.60;99.90;;;;;;5073022;28;20047;-85
2023/04/29 06:46:31;;;;;;;24.13;10.85;;;10.60;99.90;;;;;;5046833;28;20420;-85
2023/04/29 06:48:57;;;;;;;24.73;19.98;;;10.60;99.90;;;;;;5055480;28;20028;-85
2023/04/29 06:51:23;;;;;;;25.17;20.08;;;10.80;99.90;;;;;;5051865;28;20036;-85
2023/04/29 06:53:49;;;;;;;21.77;11.05;;;10.90;99.90;;;;;;5050895;28;20037;-85
2023/04/29 06:56:15;;;;;;;21.10;10.57;;;10.80;99.90;;;;;;5067039;28;20553;-85
2023/04/29 06:58:40;;;;;;;20.73;9.70;;;10.80;99.90;;;;;;5054979;28;20115;-85
2023/04/29 07:01:07;;;;;;;19.17;10.00;;;10.90;99.90;;;;;;5048429;28;20048;-85
2023/04/29 07:03:32;;;;;;;18.02;10.80;;;10.90;99.90;;;;;;5070030;28;20036;-85
2023/04/29 07:05:58;;;;;;;20.35;10.02;;;10.90;99.90;;;;;;5070082;28;20512;-85
2023/04/29 07:08:24;;;;;;;20.17;9.85;;;10.90;99.90;;;;;;5054546;28;20130;-85
2023/04/29 07:10:56;;;;;;;25.35;11.18;;;11.00;99.90;;;;;;5052918;28;20024;-85
2023/04/29 07:13:23;;;;;;;19.95;9.50;;;11.00;99.90;;;;;;5070094;28;20036;-85
2023/04/29 07:15:48;;;;;;;24.23;10.35;;;11.10;99.90;;;;;;5065454;28;20050;-85
2023/04/29 07:18:14;;;;;;;16.80;9.43;;;11.20;99.90;;;;;;5071144;28;20032;-85
2023/04/29 07:20:39;;;;;;;17.17;8.40;;;11.20;99.90;;;;;;5055532;28;20489;-85
2023/04/29 07:23:05;;;;;;;18.25;9.57;;;11.30;99.90;;;;;;5055139;28;20039;-85
2023/04/29 07:25:31;;;;;;;17.92;9.18;;;11.30;99.90;;;;;;5071144;28;20085;-85
2023/04/29 07:27:56;;;;;;;17.40;8.18;;;11.40;99.90;;;;;;5053010;28;20040;-85
2023/04/29 07:30:22;;;;;;;19.17;9.02;;;11.50;99.90;;;;;;5053198;28;20043;-85
2023/04/29 07:32:48;;;;;;;17.35;9.00;;;11.50;99.90;;;;;;5044494;28;20401;-85
2023/04/29 07:35:14;;;;;;;16.17;8.82;;;11.60;99.90;;;;;;5062356;28;20489;-85
2023/04/29 07:37:40;;;;;;;17.85;9.30;;;11.70;99.90;;;;;;5064962;28;20111;-85
2023/04/29 07:40:06;;;;;;;18.58;8.45;;;11.80;99.90;;;;;;5065367;28;20796;-85
2023/04/29 07:42:32;;;;;;;17.23;9.38;;;11.90;99.90;;;;;;5072194;28;20036;-85
2023/04/29 07:44:57;;;;;;;15.88;8.05;;;11.90;99.90;;;;;;5043485;28;20052;-85
2023/04/29 07:47:23;;;;;;;16.55;9.85;;;12.00;99.90;;;;;;5036527;28;20478;-85
2023/04/29 07:49:48;;;;;;;17.77;8.75;;;12.10;99.90;;;;;;5052708;28;20094;-85
2023/04/29 07:52:14;;;;;;;15.80;8.38;;;12.10;99.90;;;;;;5035079;28;20029;-85
2023/04/29 07:54:40;;;;;;;16.15;8.05;;;12.20;99.90;;;;;;5051872;28;20123;-85
2023/04/29 07:57:05;;;;;;;13.63;7.68;;;12.20;99.90;;;;;;5051999;28;20025;-85
2023/04/29 07:59:31;;;;;;;15.90;7.95;;;12.30;99.90;;;;;;5035165;28;20464;-85
2023/04/29 08:01:57;;;;;;;15.57;8.82;;;12.30;99.90;;;;;;5051814;28;20032;-85
2023/04/29 08:04:23;;;;;;;16.70;8.45;;;12.40;99.90;;;;;;5051523;28;20032;-85
2023/04/29 08:06:48;;;;;;;15.05;7.45;;;12.50;99.90;;;;;;5071928;28;20040;-85
2023/04/29 08:09:15;;;;;;;15.60;7.82;;;12.50;99.90;;;;;;5057159;28;20418;-85
2023/04/29 08:11:41;;;;;;;15.23;8.15;;;12.50;99.90;;;;;;5037648;28;20043;-84
2023/04/29 08:14:07;;;;;;;16.95;9.45;;;12.60;99.90;;;;;;5060583;28;20040;-85
2023/04/29 08:16:33;;;;;;;16.23;8.07;;;12.60;99.90;;;;;;5060476;28;20077;-85
2023/04/29 08:18:58;;;;;;;17.02;13.20;;;12.60;99.90;;;;;;5062435;28;20068;-86
2023/04/29 08:21:24;;;;;;;13.90;7.40;;;12.70;99.90;;;;;;5061558;28;20401;-85
2023/04/29 08:23:50;;;;;;;15.77;8.95;;;12.80;99.90;;;;;;5046684;28;20141;-84
2023/04/29 08:26:15;;;;;;;17.13;8.13;;;12.80;99.90;;;;;;5051711;28;20032;-85
2023/04/29 08:28:41;;;;;;;16.35;8.80;;;12.90;99.90;;;;;;5073367;28;20034;-85
2023/04/29 08:31:09;;;;;;;14.18;7.70;;;12.90;99.90;;;;;;5058291;28;20032;-85
2023/04/29 08:33:35;;;;;;;15.45;11.38;;;13.00;99.90;;;;;;5053512;28;20028;-85
2023/04/29 08:36:02;;;;;;;16.98;12.55;;;13.20;99.90;;;;;;5062263;28;20036;-85
2023/04/29 08:38:31;;;;;;;12.80;7.05;;;13.50;99.90;;;;;;5072280;28;20063;-85
2023/04/29 08:40:57;;;;;;;15.60;7.50;;;13.60;99.90;;;;;;5056686;28;20070;-85
2023/04/29 08:43:23;;;;;;;19.02;8.10;;;13.70;99.90;;;;;;5074927;28;20067;-85
2023/04/29 08:45:49;;;;;;;14.30;10.35;;;13.80;99.90;;;;;;5056080;28;20089;-85
2023/04/29 08:48:18;;;;;;;13.50;7.45;;;14.00;99.90;;;;;;5058538;28;20028;-85
2023/04/29 08:50:44;;;;;;;15.38;10.55;;;14.00;99.90;;;;;;5057751;28;20043;-85
2023/04/29 08:53:11;;;;;;;15.95;8.52;;;14.20;99.90;;;;;;5064838;28;20040;-85
2023/04/29 08:55:45;;;;;;;15.13;9.10;;;14.20;99.90;;;;;;5038139;28;20037;-85
2023/04/29 08:58:13;;;;;;;14.88;11.52;;;14.30;99.90;;;;;;5062562;28;20044;-85
2023/04/29 09:00:43;;;;;;;15.73;10.68;;;14.40;99.90;;;;;;5037878;28;20076;-85
2023/04/29 09:03:23;;;;;;;15.18;10.43;;;14.60;99.90;;;;;;5037967;28;20512;-85
2023/04/29 09:05:53;;;;;;;14.20;7.15;;;14.60;99.90;;;;;;5054458;28;20045;-85
2023/04/29 09:08:21;;;;;;;15.88;10.25;;;14.50;99.90;;;;;;5054604;28;20586;-85
2023/04/29 09:10:47;;;;;;;13.32;6.93;;;14.60;99.90;;;;;;5073137;28;20316;-85
2023/04/29 09:13:23;;;;;;;14.32;9.68;;;14.60;99.90;;;;;;5059163;28;20533;-86
2023/04/29 09:15:49;;;;;;;13.68;9.52;;;14.70;99.90;;;;;;5046934;28;20044;-86
2023/04/29 09:18:44;;;;;;;13.80;9.50;;;14.80;99.90;;;;;;5062805;28;20512;-85
2023/04/29 09:21:18;;;;;;;11.82;6.75;;;15.00;99.90;;;;;;5064383;28;20408;-85
2023/04/29 09:23:45;;;;;;;12.48;6.93;;;15.10;99.90;;;;;;5064846;28;20117;-86
2023/04/29 09:26:11;;;;;;;11.73;6.93;;;15.30;99.90;;;;;;5062339;28;20128;-86
2023/04/29 09:28:39;;;;;;;13.27;8.30;;;15.40;99.90;;;;;;5065169;28;20119;-86
2023/04/29 09:31:07;;;;;;;15.13;9.52;;;15.50;99.90;;;;;;5044816;28;20024;-86
2023/04/29 09:33:53;;;;;;;12.15;8.23;;;15.60;99.90;;;;;;5074521;28;20043;-86
2023/04/29 09:36:34;;;;;;;12.95;8.35;;;15.70;98.20;;;;;;5056267;28;20398;-86
2023/04/29 09:38:59;;;;;;;12.43;6.63;;;15.80;99.10;;;;;;5053973;28;20048;-86
2023/04/29 09:41:26;;;;;;;13.55;7.30;;;15.90;99.90;;;;;;5053900;28;20041;-86
2023/04/29 09:44:05;;;;;;;11.95;8.48;;;16.00;99.90;;;;;;5063036;28;20043;-86
2023/04/29 09:46:35;;;;;;;12.25;8.38;;;16.10;97.70;;;;;;5053977;28;20048;-86
2023/04/29 09:49:01;;;;;;;13.77;8.32;;;16.30;98.80;;;;;;5056905;28;20047;-86
2023/04/29 09:51:27;;;;;;;14.32;9.32;;;16.40;96.00;;;;;;5069231;28;20039;-86
2023/04/29 09:53:53;;;;;;;14.30;9.82;;;16.60;95.60;;;;;;5087555;28;20174;-86
2023/04/29 09:56:18;;;;;;;12.68;8.85;;;16.70;95.80;;;;;;5080272;28;20162;-86
2023/04/29 09:58:44;;;;;;;13.65;9.98;;;16.90;95.70;;;;;;5058382;28;20089;-86
2023/04/29 10:01:12;;;;;;;13.20;8.60;;;17.10;95.50;;;;;;5073866;28;20040;-86
2023/04/29 10:03:38;;;;;;;11.90;7.60;;;17.10;91.90;;;;;;5073142;28;20032;-86
2023/04/29 10:06:05;;;;;;;12.32;7.10;;;17.00;89.50;;;;;;5071485;28;20516;-86
2023/04/29 10:08:33;;;;;;;11.32;7.38;;;16.90;87.00;;;;;;5067228;28;20111;-86
2023/04/29 10:11:01;;;;;;;11.90;8.10;;;16.80;87.70;;;;;;5073375;28;20040;-86
2023/04/29 10:13:27;;;;;;;13.25;9.38;;;16.70;87.10;;;;;;5055590;28;20042;-86
2023/04/29 10:16:36;;;;;;;12.82;7.93;;;16.60;86.90;;;;;;5071198;28;20711;-86
2023/04/29 10:19:06;;;;;;;11.77;7.70;;;16.60;88.30;;;;;;4971010;28;20050;-86
2023/04/29 10:21:32;;;;;;;18.02;7.47;;;16.70;90.30;;;;;;4971926;28;20054;-86
2023/04/29 10:24:00;;;;;;;12.23;7.07;;;16.90;89.30;;;;;;4985704;28;20046;-86
2023/04/29 10:26:28;;;;;;;10.63;6.63;;;17.00;87.50;;;;;;4962479;28;20054;-86
2023/04/29 10:28:58;;;;;;;13.32;7.30;;;17.20;87.80;;;;;;4974527;28;20112;-86
2023/04/29 10:31:28;;;;;;;11.70;7.68;;;17.30;87.10;;;;;;4953366;28;20157;-86
2023/04/29 10:33:58;;;;;;;26.38;17.38;;;17.40;85.40;;;;;;4953629;28;20110;-86
2023/04/29 10:36:29;;;;;;;19.45;13.93;;;17.50;86.00;;;;;;4953479;28;20615;-86
2023/04/29 10:39:02;;;;;;;14.93;10.55;;;17.60;84.60;;;;;;4938070;28;20038;-86
2023/04/29 10:41:36;;;;;;;15.95;10.32;;;17.60;83.70;;;;;;4969220;28;20043;-86
2023/04/29 10:44:03;;;;;;;14.35;9.15;;;17.60;81.00;;;;;;4947219;28;20077;-87
2023/04/29 10:46:29;;;;;;;13.80;9.10;;;17.50;79.60;;;;;;4972272;28;20050;-86
2023/04/29 10:49:05;;;;;;;11.25;7.78;;;17.60;81.10;;;;;;4964780;28;20129;-86
2023/04/29 10:51:40;;;;;;;12.82;7.90;;;17.70;81.40;;;;;;4956846;28;20034;-87
2023/04/29 10:54:14;;;;;;;10.65;6.97;;;17.80;80.60;;;;;;4972951;28;20400;-86
2023/04/29 10:56:48;;;;;;;11.05;7.25;;;18.00;79.20;;;;;;5048801;28;20144;-87
2023/04/29 10:59:18;;;;;;;10.95;6.88;;;18.10;78.40;;;;;;5056268;28;20044;-87
2023/04/29 11:01:53;;;;;;;12.68;7.38;;;18.30;79.30;;;;;;5056176;28;20089;-87
2023/04/29 11:04:20;;;;;;;11.75;7.80;;;18.50;78.70;;;;;;5073000;28;20043;-87
2023/04/29 11:06:53;;;;;;;14.60;8.75;;;18.60;77.10;;;;;;5056208;28;20036;-87
2023/04/29 11:09:26;;;;;;;13.38;6.60;;;18.60;76.50;;;;;;5056367;28;20032;-87
2023/04/29 11:11:56;;;;;;;10.98;6.35;;;18.60;75.30;;;;;;5053559;28;20071;-87
2023/04/29 11:14:40;;;;;;;11.55;6.78;;;18.50;74.80;;;;;;5056190;28;20065;-87
2023/04/29 11:17:11;;;;;;;11.75;7.22;;;18.50;75.80;;;;;;5072596;28;20039;-87
2023/04/29 11:19:45;;;;;;;11.47;6.57;;;18.70;75.90;;;;;;5072595;28;20044;-86
2023/04/29 11:22:32;;;;;;;9.50;5.75;;;18.90;75.50;;;;;;5072440;28;20047;-87
2023/04/29 11:25:05;;;;;;;11.23;6.95;;;19.00;74.40;;;;;;5072447;28;20131;-87
2023/04/29 11:27:32;;;;;;;11.55;6.60;;;19.20;75.00;;;;;;5055739;28;20040;-87
2023/04/29 11:30:00;;;;;;;11.88;6.72;;;19.20;73.50;;;;;;5050351;28;20045;-87
2023/04/29 11:32:31;;;;;;;13.18;7.30;;;19.10;72.60;;;;;;5052463;28;20081;-86
2023/04/29 11:35:18;;;;;;;12.02;6.03;;;19.00;71.30;;;;;;5035089;28;20572;-86
2023/04/29 11:37:45;;;;;;;11.98;6.15;;;19.00;72.00;;;;;;5036454;28;20068;-87
2023/04/29 11:40:12;;;;;;;9.65;4.10;;;19.10;72.00;;;;;;5051916;28;20486;-87
2023/04/29 11:42:44;;;;;;;9.77;4.72;;;19.30;70.10;;;;;;5064244;28;20085;-87
2023/04/29 11:45:11;;;;;;;10.35;4.82;;;19.50;70.40;;;;;;5072796;28;20062;-87
2023/04/29 11:47:37;;;;;;;9.57;5.30;;;19.70;70.80;;;;;;5072539;28;20115;-86
2023/04/29 11:50:03;;;;;;;9.43;5.30;;;19.90;70.80;;;;;;5056259;28;20051;-87
2023/04/29 11:52:29;;;;;;;9.52;4.78;;;20.00;69.30;;;;;;5056164;28;20051;-86
2023/04/29 11:54:57;;;;;;;10.00;5.25;;;20.20;69.40;;;;;;5054826;28;20029;-86
2023/04/29 11:57:22;;;;;;;9.95;4.53;;;20.30;69.10;;;;;;5052916;28;20111;-86
2023/04/29 11:59:48;;;;;;;9.63;5.28;;;20.50;68.10;;;;;;5055907;28;20044;-87
2023/04/29 12:02:14;;;;;;;10.60;5.13;;;20.60;67.00;;;;;;5076447;28;20024;-86
2023/04/29 12:04:46;;;;;;;9.75;4.60;;;20.60;65.60;;;;;;5058952;28;20404;-87
2023/04/29 12:07:15;;;;;;;10.75;5.45;;;20.40;62.70;;;;;;5075441;28;20202;-87
2023/04/29 12:09:42;;;;;;;10.18;5.20;;;20.50;65.00;;;;;;5058929;28;20515;-87
2023/04/29 12:12:08;;;;;;;9.43;5.30;;;20.60;65.90;;;;;;5063009;28;20080;-87
2023/04/29 12:14:34;;;;;;;10.77;4.47;;;20.80;62.10;;;;;;5039426;28;20076;-87
2023/04/29 12:17:00;;;;;;;9.13;4.47;;;20.80;63.50;;;;;;5061637;28;20554;-87
2023/04/29 12:19:26;;;;;;;9.13;4.40;;;21.00;63.80;;;;;;5076040;28;20107;-87
2023/04/29 12:21:52;;;;;;;8.98;4.20;;;21.20;64.20;;;;;;5076632;28;20123;-87
2023/04/29 12:24:20;;;;;;;8.45;4.00;;;21.30;63.10;;;;;;5058615;28;20135;-87
2023/04/29 12:26:46;;;;;;;11.23;4.30;;;21.50;63.00;;;;;;5059078;28;20044;-86
2023/04/29 12:29:13;;;;;;;7.97;3.80;;;21.70;62.60;;;;;;5067384;28;20123;-86
2023/04/29 12:31:38;;;;;;;9.07;4.22;;;21.80;62.50;;;;;;5058491;28;20036;-86
2023/04/29 12:34:04;;;;;;;8.93;4.38;;;22.00;62.80;;;;;;5059257;28;20088;-87